sensor_id;sensor_type;location;lat;lon;timestamp;P1;durP1;ratioP1;P2;durP2;ratioP2
23101;SDS011;11720;51.214;22.574;2022-08-01T00:00:27;1.48;;;1.38;;
23101;SDS011;11720;51.214;22.574;2022-08-01T00:02:53;1.77;;;1.20;;
23101;SDS011;11720;51.214;22.574;2022-08-01T00:05:18;1.90;;;1.08;;
23101;SDS011;11720;51.214;22.574;2022-08-01T00:07:44;1.33;;;1.13;;
23101;SDS011;11720;51.214;22.574;2022-08-01T00:10:11;1.77;;;1.13;;
23101;SDS011;11720;51.214;22.574;2022-08-01T00:12:38;1.60;;;1.10;;
23101;SDS011;11720;51.214;22.574;2022-08-01T00:15:06;1.65;;;1.25;;
23101;SDS011;11720;51.214;22.574;2022-08-01T00:17:33;1.55;;;1.30;;
23101;SDS011;11720;51.214;22.574;2022-08-01T00:19:59;1.38;;;1.20;;
23101;SDS011;11720;51.214;22.574;2022-08-01T00:22:25;1.55;;;1.45;;
23101;SDS011;11720;51.214;22.574;2022-08-01T00:24:51;3.05;;;1.75;;
23101;SDS011;11720;51.214;22.574;2022-08-01T00:27:17;4.75;;;2.50;;
23101;SDS011;11720;51.214;22.574;2022-08-01T00:29:42;2.35;;;1.42;;
23101;SDS011;11720;51.214;22.574;2022-08-01T00:32:08;2.75;;;1.98;;
23101;SDS011;11720;51.214;22.574;2022-08-01T00:34:34;3.65;;;1.60;;
23101;SDS011;11720;51.214;22.574;2022-08-01T00:37:00;3.67;;;2.00;;
23101;SDS011;11720;51.214;22.574;2022-08-01T00:39:26;2.35;;;2.10;;
23101;SDS011;11720;51.214;22.574;2022-08-01T00:41:51;2.65;;;2.00;;
23101;SDS011;11720;51.214;22.574;2022-08-01T00:44:17;2.08;;;1.52;;
23101;SDS011;11720;51.214;22.574;2022-08-01T00:46:42;2.42;;;1.65;;
23101;SDS011;11720;51.214;22.574;2022-08-01T00:49:08;5.78;;;2.20;;
23101;SDS011;11720;51.214;22.574;2022-08-01T00:51:33;3.15;;;1.80;;
23101;SDS011;11720;51.214;22.574;2022-08-01T00:53:59;2.95;;;1.67;;
23101;SDS011;11720;51.214;22.574;2022-08-01T00:56:26;2.05;;;1.30;;
23101;SDS011;11720;51.214;22.574;2022-08-01T00:58:53;2.90;;;1.92;;
23101;SDS011;11720;51.214;22.574;2022-08-01T01:01:20;2.65;;;1.88;;
23101;SDS011;11720;51.214;22.574;2022-08-01T01:03:49;1.70;;;1.50;;
23101;SDS011;11720;51.214;22.574;2022-08-01T01:12:15;2.70;;;1.55;;
23101;SDS011;11720;51.214;22.574;2022-08-01T01:14:59;4.88;;;2.00;;
23101;SDS011;11720;51.214;22.574;2022-08-01T01:17:45;2.47;;;1.60;;
23101;SDS011;11720;51.214;22.574;2022-08-01T01:20:16;2.45;;;1.33;;
23101;SDS011;11720;51.214;22.574;2022-08-01T01:28:50;1.80;;;0.80;;
23101;SDS011;11720;51.214;22.574;2022-08-01T01:31:29;2.13;;;1.05;;
23101;SDS011;11720;51.214;22.574;2022-08-01T01:34:01;2.67;;;1.45;;
23101;SDS011;11720;51.214;22.574;2022-08-01T01:36:29;1.20;;;1.10;;
23101;SDS011;11720;51.214;22.574;2022-08-01T01:38:57;1.55;;;1.00;;
23101;SDS011;11720;51.214;22.574;2022-08-01T01:41:24;0.95;;;0.95;;
23101;SDS011;11720;51.214;22.574;2022-08-01T01:43:50;2.13;;;1.38;;
23101;SDS011;11720;51.214;22.574;2022-08-01T01:46:18;1.08;;;0.85;;
23101;SDS011;11720;51.214;22.574;2022-08-01T01:48:47;0.95;;;0.80;;
23101;SDS011;11720;51.214;22.574;2022-08-01T01:51:14;0.82;;;0.68;;
23101;SDS011;11720;51.214;22.574;2022-08-01T01:53:41;1.17;;;0.98;;
23101;SDS011;11720;51.214;22.574;2022-08-01T01:56:08;1.65;;;1.10;;
23101;SDS011;11720;51.214;22.574;2022-08-01T01:58:34;1.95;;;0.95;;
23101;SDS011;11720;51.214;22.574;2022-08-01T02:01:04;1.20;;;1.10;;
23101;SDS011;11720;51.214;22.574;2022-08-01T02:03:31;4.55;;;0.98;;
23101;SDS011;11720;51.214;22.574;2022-08-01T02:06:01;1.50;;;1.23;;
23101;SDS011;11720;51.214;22.574;2022-08-01T02:08:28;1.23;;;1.10;;
23101;SDS011;11720;51.214;22.574;2022-08-01T02:10:56;1.30;;;1.20;;
23101;SDS011;11720;51.214;22.574;2022-08-01T02:13:41;1.40;;;1.13;;
23101;SDS011;11720;51.214;22.574;2022-08-01T02:16:08;1.02;;;0.95;;
23101;SDS011;11720;51.214;22.574;2022-08-01T02:18:36;1.13;;;0.82;;
23101;SDS011;11720;51.214;22.574;2022-08-01T02:21:04;3.03;;;1.20;;
23101;SDS011;11720;51.214;22.574;2022-08-01T02:23:33;1.30;;;0.90;;
23101;SDS011;11720;51.214;22.574;2022-08-01T02:26:02;0.95;;;0.93;;
23101;SDS011;11720;51.214;22.574;2022-08-01T02:28:36;1.30;;;1.05;;
23101;SDS011;11720;51.214;22.574;2022-08-01T02:31:08;1.52;;;1.25;;
23101;SDS011;11720;51.214;22.574;2022-08-01T02:33:40;2.28;;;1.40;;
23101;SDS011;11720;51.214;22.574;2022-08-01T02:36:10;1.85;;;1.52;;
23101;SDS011;11720;51.214;22.574;2022-08-01T02:38:37;2.10;;;1.40;;
23101;SDS011;11720;51.214;22.574;2022-08-01T02:41:08;1.42;;;1.33;;
23101;SDS011;11720;51.214;22.574;2022-08-01T02:43:38;2.80;;;1.63;;
23101;SDS011;11720;51.214;22.574;2022-08-01T02:46:09;2.13;;;1.48;;
23101;SDS011;11720;51.214;22.574;2022-08-01T02:48:41;3.70;;;1.65;;
23101;SDS011;11720;51.214;22.574;2022-08-01T02:51:08;2.35;;;1.73;;
23101;SDS011;11720;51.214;22.574;2022-08-01T02:53:36;3.22;;;2.15;;
23101;SDS011;11720;51.214;22.574;2022-08-01T02:56:05;3.22;;;2.20;;
23101;SDS011;11720;51.214;22.574;2022-08-01T02:58:31;6.75;;;4.00;;
23101;SDS011;11720;51.214;22.574;2022-08-01T03:01:00;1.83;;;1.73;;
23101;SDS011;11720;51.214;22.574;2022-08-01T03:03:27;3.13;;;1.60;;
23101;SDS011;11720;51.214;22.574;2022-08-01T03:05:54;2.10;;;1.90;;
23101;SDS011;11720;51.214;22.574;2022-08-01T03:08:21;3.65;;;1.95;;
23101;SDS011;11720;51.214;22.574;2022-08-01T03:10:48;3.60;;;2.05;;
23101;SDS011;11720;51.214;22.574;2022-08-01T03:13:16;2.40;;;1.67;;
23101;SDS011;11720;51.214;22.574;2022-08-01T03:15:43;3.47;;;2.38;;
23101;SDS011;11720;51.214;22.574;2022-08-01T03:18:09;3.40;;;2.17;;
23101;SDS011;11720;51.214;22.574;2022-08-01T03:20:36;5.35;;;2.67;;
23101;SDS011;11720;51.214;22.574;2022-08-01T03:23:04;3.53;;;2.70;;
23101;SDS011;11720;51.214;22.574;2022-08-01T03:25:32;4.70;;;1.80;;
23101;SDS011;11720;51.214;22.574;2022-08-01T03:28:01;2.05;;;1.85;;
23101;SDS011;11720;51.214;22.574;2022-08-01T03:30:29;3.65;;;1.33;;
23101;SDS011;11720;51.214;22.574;2022-08-01T03:32:56;4.63;;;2.05;;
23101;SDS011;11720;51.214;22.574;2022-08-01T03:35:22;2.90;;;1.70;;
23101;SDS011;11720;51.214;22.574;2022-08-01T03:37:54;2.45;;;1.60;;
23101;SDS011;11720;51.214;22.574;2022-08-01T03:40:22;1.45;;;1.35;;
23101;SDS011;11720;51.214;22.574;2022-08-01T03:42:52;1.98;;;1.40;;
23101;SDS011;11720;51.214;22.574;2022-08-01T03:45:25;1.52;;;1.42;;
23101;SDS011;11720;51.214;22.574;2022-08-01T03:48:05;1.55;;;1.15;;
23101;SDS011;11720;51.214;22.574;2022-08-01T03:50:41;2.38;;;1.38;;
23101;SDS011;11720;51.214;22.574;2022-08-01T03:53:10;1.38;;;1.20;;
23101;SDS011;11720;51.214;22.574;2022-08-01T03:55:38;2.50;;;1.67;;
23101;SDS011;11720;51.214;22.574;2022-08-01T03:58:06;1.48;;;1.17;;
23101;SDS011;11720;51.214;22.574;2022-08-01T04:00:32;4.65;;;2.13;;
23101;SDS011;11720;51.214;22.574;2022-08-01T04:03:00;2.75;;;1.88;;
23101;SDS011;11720;51.214;22.574;2022-08-01T04:05:26;3.47;;;2.05;;
23101;SDS011;11720;51.214;22.574;2022-08-01T04:07:51;1.73;;;1.50;;
23101;SDS011;11720;51.214;22.574;2022-08-01T04:10:24;2.90;;;2.03;;
23101;SDS011;11720;51.214;22.574;2022-08-01T04:12:50;2.50;;;1.92;;
23101;SDS011;11720;51.214;22.574;2022-08-01T04:15:17;2.90;;;2.10;;
23101;SDS011;11720;51.214;22.574;2022-08-01T04:17:43;2.15;;;1.95;;
23101;SDS011;11720;51.214;22.574;2022-08-01T04:20:09;2.03;;;1.75;;
23101;SDS011;11720;51.214;22.574;2022-08-01T04:22:36;2.40;;;1.80;;
23101;SDS011;11720;51.214;22.574;2022-08-01T04:25:03;2.58;;;1.63;;
23101;SDS011;11720;51.214;22.574;2022-08-01T04:27:35;1.90;;;1.63;;
23101;SDS011;11720;51.214;22.574;2022-08-01T04:30:03;1.52;;;1.40;;
23101;SDS011;11720;51.214;22.574;2022-08-01T04:32:31;2.15;;;1.92;;
23101;SDS011;11720;51.214;22.574;2022-08-01T04:35:00;1.95;;;1.50;;
23101;SDS011;11720;51.214;22.574;2022-08-01T04:37:29;2.63;;;1.95;;
23101;SDS011;11720;51.214;22.574;2022-08-01T04:39:56;2.90;;;1.73;;
23101;SDS011;11720;51.214;22.574;2022-08-01T04:42:23;2.22;;;1.77;;
23101;SDS011;11720;51.214;22.574;2022-08-01T04:44:48;2.17;;;1.88;;
23101;SDS011;11720;51.214;22.574;2022-08-01T04:47:14;3.28;;;2.10;;
23101;SDS011;11720;51.214;22.574;2022-08-01T04:49:40;3.55;;;2.42;;
23101;SDS011;11720;51.214;22.574;2022-08-01T04:52:06;2.42;;;1.65;;
23101;SDS011;11720;51.214;22.574;2022-08-01T04:54:35;2.28;;;1.80;;
23101;SDS011;11720;51.214;22.574;2022-08-01T04:57:04;1.65;;;1.52;;
23101;SDS011;11720;51.214;22.574;2022-08-01T04:59:31;2.92;;;1.80;;
23101;SDS011;11720;51.214;22.574;2022-08-01T05:02:14;4.55;;;2.40;;
23101;SDS011;11720;51.214;22.574;2022-08-01T05:04:41;2.67;;;2.15;;
23101;SDS011;11720;51.214;22.574;2022-08-01T05:07:08;1.73;;;1.60;;
23101;SDS011;11720;51.214;22.574;2022-08-01T05:09:34;3.65;;;2.00;;
23101;SDS011;11720;51.214;22.574;2022-08-01T05:12:03;3.45;;;2.65;;
23101;SDS011;11720;51.214;22.574;2022-08-01T05:14:30;3.85;;;2.50;;
23101;SDS011;11720;51.214;22.574;2022-08-01T05:17:00;3.05;;;2.03;;
23101;SDS011;11720;51.214;22.574;2022-08-01T05:19:32;3.40;;;2.40;;
23101;SDS011;11720;51.214;22.574;2022-08-01T05:21:58;3.95;;;2.47;;
23101;SDS011;11720;51.214;22.574;2022-08-01T05:24:26;3.35;;;2.25;;
23101;SDS011;11720;51.214;22.574;2022-08-01T05:26:53;2.97;;;2.10;;
23101;SDS011;11720;51.214;22.574;2022-08-01T05:29:22;3.35;;;2.75;;
23101;SDS011;11720;51.214;22.574;2022-08-01T05:31:48;6.40;;;2.58;;
23101;SDS011;11720;51.214;22.574;2022-08-01T05:34:14;3.00;;;2.05;;
23101;SDS011;11720;51.214;22.574;2022-08-01T05:36:40;2.65;;;2.08;;
23101;SDS011;11720;51.214;22.574;2022-08-01T05:39:05;1.95;;;1.65;;
23101;SDS011;11720;51.214;22.574;2022-08-01T05:41:31;2.40;;;2.03;;
23101;SDS011;11720;51.214;22.574;2022-08-01T05:43:57;2.53;;;2.05;;
23101;SDS011;11720;51.214;22.574;2022-08-01T05:46:22;2.20;;;1.90;;
23101;SDS011;11720;51.214;22.574;2022-08-01T05:48:48;2.15;;;1.90;;
23101;SDS011;11720;51.214;22.574;2022-08-01T05:51:14;2.55;;;2.05;;
23101;SDS011;11720;51.214;22.574;2022-08-01T05:53:39;2.47;;;2.17;;
23101;SDS011;11720;51.214;22.574;2022-08-01T05:56:05;4.47;;;2.70;;
23101;SDS011;11720;51.214;22.574;2022-08-01T05:58:31;3.17;;;2.20;;
23101;SDS011;11720;51.214;22.574;2022-08-01T06:00:57;3.05;;;2.65;;
23101;SDS011;11720;51.214;22.574;2022-08-01T06:03:22;6.28;;;3.20;;
23101;SDS011;11720;51.214;22.574;2022-08-01T06:05:48;3.63;;;2.38;;
23101;SDS011;11720;51.214;22.574;2022-08-01T06:08:15;4.68;;;3.30;;
23101;SDS011;11720;51.214;22.574;2022-08-01T06:10:41;3.70;;;3.00;;
23101;SDS011;11720;51.214;22.574;2022-08-01T06:13:07;4.70;;;3.08;;
23101;SDS011;11720;51.214;22.574;2022-08-01T06:15:33;5.25;;;3.35;;
23101;SDS011;11720;51.214;22.574;2022-08-01T06:17:58;4.78;;;3.33;;
23101;SDS011;11720;51.214;22.574;2022-08-01T06:20:24;6.22;;;3.90;;
23101;SDS011;11720;51.214;22.574;2022-08-01T06:22:50;12.05;;;5.03;;
23101;SDS011;11720;51.214;22.574;2022-08-01T06:25:19;9.55;;;6.10;;
23101;SDS011;11720;51.214;22.574;2022-08-01T06:27:45;9.90;;;6.25;;
23101;SDS011;11720;51.214;22.574;2022-08-01T06:30:10;8.43;;;5.45;;
23101;SDS011;11720;51.214;22.574;2022-08-01T06:32:36;15.38;;;7.25;;
23101;SDS011;11720;51.214;22.574;2022-08-01T06:35:02;13.18;;;7.03;;
23101;SDS011;11720;51.214;22.574;2022-08-01T06:37:29;9.07;;;5.20;;
23101;SDS011;11720;51.214;22.574;2022-08-01T06:39:55;10.45;;;6.13;;
23101;SDS011;11720;51.214;22.574;2022-08-01T06:42:21;8.07;;;4.78;;
23101;SDS011;11720;51.214;22.574;2022-08-01T06:44:46;6.20;;;4.65;;
23101;SDS011;11720;51.214;22.574;2022-08-01T06:47:12;7.93;;;5.15;;
23101;SDS011;11720;51.214;22.574;2022-08-01T06:49:37;7.45;;;4.50;;
23101;SDS011;11720;51.214;22.574;2022-08-01T06:52:03;9.75;;;5.28;;
23101;SDS011;11720;51.214;22.574;2022-08-01T06:54:29;5.85;;;4.00;;
23101;SDS011;11720;51.214;22.574;2022-08-01T06:56:54;6.85;;;4.97;;
23101;SDS011;11720;51.214;22.574;2022-08-01T06:59:20;4.45;;;3.45;;
23101;SDS011;11720;51.214;22.574;2022-08-01T07:01:45;4.22;;;3.17;;
23101;SDS011;11720;51.214;22.574;2022-08-01T07:04:11;5.28;;;3.25;;
23101;SDS011;11720;51.214;22.574;2022-08-01T07:06:37;5.28;;;3.38;;
23101;SDS011;11720;51.214;22.574;2022-08-01T07:09:02;9.38;;;3.78;;
23101;SDS011;11720;51.214;22.574;2022-08-01T07:11:28;5.32;;;3.38;;
23101;SDS011;11720;51.214;22.574;2022-08-01T07:13:54;5.45;;;3.95;;
23101;SDS011;11720;51.214;22.574;2022-08-01T07:16:19;7.25;;;3.88;;
23101;SDS011;11720;51.214;22.574;2022-08-01T07:18:46;4.80;;;3.17;;
23101;SDS011;11720;51.214;22.574;2022-08-01T07:21:12;3.22;;;2.50;;
23101;SDS011;11720;51.214;22.574;2022-08-01T07:23:38;4.75;;;3.33;;
23101;SDS011;11720;51.214;22.574;2022-08-01T07:26:03;7.22;;;3.70;;
23101;SDS011;11720;51.214;22.574;2022-08-01T07:28:29;4.63;;;2.70;;
23101;SDS011;11720;51.214;22.574;2022-08-01T07:30:55;4.70;;;3.22;;
23101;SDS011;11720;51.214;22.574;2022-08-01T07:33:21;3.25;;;2.53;;
23101;SDS011;11720;51.214;22.574;2022-08-01T07:35:47;2.33;;;1.55;;
23101;SDS011;11720;51.214;22.574;2022-08-01T07:38:13;7.43;;;2.67;;
23101;SDS011;11720;51.214;22.574;2022-08-01T07:40:41;3.95;;;2.53;;
23101;SDS011;11720;51.214;22.574;2022-08-01T07:43:08;3.05;;;2.15;;
23101;SDS011;11720;51.214;22.574;2022-08-01T07:45:33;7.35;;;2.10;;
23101;SDS011;11720;51.214;22.574;2022-08-01T07:48:03;2.75;;;1.95;;
23101;SDS011;11720;51.214;22.574;2022-08-01T07:50:29;2.60;;;2.20;;
23101;SDS011;11720;51.214;22.574;2022-08-01T07:52:55;3.05;;;1.95;;
23101;SDS011;11720;51.214;22.574;2022-08-01T07:55:20;3.78;;;1.70;;
23101;SDS011;11720;51.214;22.574;2022-08-01T07:57:46;2.97;;;2.15;;
23101;SDS011;11720;51.214;22.574;2022-08-01T08:00:12;2.10;;;1.63;;
23101;SDS011;11720;51.214;22.574;2022-08-01T08:02:38;1.75;;;1.42;;
23101;SDS011;11720;51.214;22.574;2022-08-01T08:05:04;5.72;;;2.22;;
23101;SDS011;11720;51.214;22.574;2022-08-01T08:07:31;4.70;;;1.80;;
23101;SDS011;11720;51.214;22.574;2022-08-01T08:09:57;2.90;;;1.90;;
23101;SDS011;11720;51.214;22.574;2022-08-01T08:12:23;1.83;;;1.73;;
23101;SDS011;11720;51.214;22.574;2022-08-01T08:14:48;1.45;;;1.35;;
23101;SDS011;11720;51.214;22.574;2022-08-01T08:17:14;2.13;;;1.73;;
23101;SDS011;11720;51.214;22.574;2022-08-01T08:19:40;2.97;;;2.08;;
23101;SDS011;11720;51.214;22.574;2022-08-01T08:22:06;4.60;;;2.70;;
23101;SDS011;11720;51.214;22.574;2022-08-01T08:24:33;2.97;;;2.22;;
23101;SDS011;11720;51.214;22.574;2022-08-01T08:26:59;3.05;;;2.58;;
23101;SDS011;11720;51.214;22.574;2022-08-01T08:29:26;3.35;;;2.65;;
23101;SDS011;11720;51.214;22.574;2022-08-01T08:31:54;3.85;;;2.17;;
23101;SDS011;11720;51.214;22.574;2022-08-01T08:34:20;1.80;;;1.67;;
23101;SDS011;11720;51.214;22.574;2022-08-01T08:36:46;1.70;;;1.60;;
23101;SDS011;11720;51.214;22.574;2022-08-01T08:39:15;1.42;;;1.10;;
23101;SDS011;11720;51.214;22.574;2022-08-01T08:41:41;1.25;;;0.90;;
23101;SDS011;11720;51.214;22.574;2022-08-01T08:44:08;1.20;;;1.10;;
23101;SDS011;11720;51.214;22.574;2022-08-01T08:46:38;1.83;;;1.45;;
23101;SDS011;11720;51.214;22.574;2022-08-01T08:49:06;3.20;;;2.47;;
23101;SDS011;11720;51.214;22.574;2022-08-01T08:51:33;4.15;;;2.85;;
23101;SDS011;11720;51.214;22.574;2022-08-01T08:54:02;2.33;;;1.98;;
23101;SDS011;11720;51.214;22.574;2022-08-01T08:56:29;3.47;;;1.42;;
23101;SDS011;11720;51.214;22.574;2022-08-01T08:58:59;1.70;;;1.30;;
23101;SDS011;11720;51.214;22.574;2022-08-01T09:01:25;3.58;;;1.98;;
23101;SDS011;11720;51.214;22.574;2022-08-01T09:03:51;1.17;;;1.08;;
23101;SDS011;11720;51.214;22.574;2022-08-01T09:06:18;2.03;;;1.67;;
23101;SDS011;11720;51.214;22.574;2022-08-01T09:08:44;1.23;;;1.13;;
23101;SDS011;11720;51.214;22.574;2022-08-01T09:11:09;1.20;;;1.10;;
23101;SDS011;11720;51.214;22.574;2022-08-01T09:13:35;1.55;;;1.40;;
23101;SDS011;11720;51.214;22.574;2022-08-01T09:16:01;1.00;;;1.00;;
23101;SDS011;11720;51.214;22.574;2022-08-01T09:18:31;3.05;;;2.08;;
23101;SDS011;11720;51.214;22.574;2022-08-01T09:21:18;2.08;;;1.80;;
23101;SDS011;11720;51.214;22.574;2022-08-01T09:23:47;3.90;;;1.67;;
23101;SDS011;11720;51.214;22.574;2022-08-01T09:26:15;2.55;;;2.10;;
23101;SDS011;11720;51.214;22.574;2022-08-01T09:28:43;2.55;;;1.70;;
23101;SDS011;11720;51.214;22.574;2022-08-01T09:31:13;3.13;;;2.83;;
23101;SDS011;11720;51.214;22.574;2022-08-01T09:34:00;1.20;;;1.10;;
23101;SDS011;11720;51.214;22.574;2022-08-01T09:39:18;1.17;;;1.08;;
23101;SDS011;11720;51.214;22.574;2022-08-01T09:41:46;0.82;;;0.82;;
23101;SDS011;11720;51.214;22.574;2022-08-01T09:44:12;0.88;;;0.82;;
23101;SDS011;11720;51.214;22.574;2022-08-01T09:46:48;1.00;;;0.90;;
23101;SDS011;11720;51.214;22.574;2022-08-01T09:49:15;1.45;;;1.00;;
23101;SDS011;11720;51.214;22.574;2022-08-01T09:52:14;1.75;;;1.20;;
23101;SDS011;11720;51.214;22.574;2022-08-01T09:54:51;2.08;;;1.20;;
23101;SDS011;11720;51.214;22.574;2022-08-01T09:57:20;1.23;;;1.10;;
23101;SDS011;11720;51.214;22.574;2022-08-01T09:59:46;2.88;;;1.25;;
23101;SDS011;11720;51.214;22.574;2022-08-01T10:02:25;2.58;;;1.45;;
23101;SDS011;11720;51.214;22.574;2022-08-01T10:04:57;1.45;;;1.33;;
23101;SDS011;11720;51.214;22.574;2022-08-01T10:07:23;1.02;;;1.00;;
23101;SDS011;11720;51.214;22.574;2022-08-01T10:09:49;1.58;;;1.20;;
23101;SDS011;11720;51.214;22.574;2022-08-01T10:12:19;1.67;;;1.35;;
23101;SDS011;11720;51.214;22.574;2022-08-01T10:14:51;1.80;;;1.23;;
23101;SDS011;11720;51.214;22.574;2022-08-01T10:17:19;2.90;;;1.35;;
23101;SDS011;11720;51.214;22.574;2022-08-01T10:19:46;1.35;;;1.25;;
23101;SDS011;11720;51.214;22.574;2022-08-01T10:22:15;1.33;;;1.10;;
23101;SDS011;11720;51.214;22.574;2022-08-01T10:24:43;1.42;;;1.13;;
23101;SDS011;11720;51.214;22.574;2022-08-01T10:27:11;2.50;;;1.33;;
23101;SDS011;11720;51.214;22.574;2022-08-01T10:29:40;1.70;;;1.10;;
23101;SDS011;11720;51.214;22.574;2022-08-01T10:32:33;0.70;;;0.70;;
23101;SDS011;11720;51.214;22.574;2022-08-01T10:35:05;1.23;;;0.73;;
23101;SDS011;11720;51.214;22.574;2022-08-01T10:37:33;1.00;;;0.90;;
23101;SDS011;11720;51.214;22.574;2022-08-01T10:40:00;1.40;;;1.30;;
23101;SDS011;11720;51.214;22.574;2022-08-01T10:42:27;2.22;;;1.63;;
23101;SDS011;11720;51.214;22.574;2022-08-01T10:44:53;1.05;;;0.98;;
23101;SDS011;11720;51.214;22.574;2022-08-01T10:47:22;1.00;;;0.90;;
23101;SDS011;11720;51.214;22.574;2022-08-01T10:50:03;1.17;;;1.00;;
23101;SDS011;11720;51.214;22.574;2022-08-01T10:52:36;2.10;;;0.85;;
23101;SDS011;11720;51.214;22.574;2022-08-01T10:55:05;0.80;;;0.80;;
23101;SDS011;11720;51.214;22.574;2022-08-01T10:57:44;1.10;;;1.00;;
23101;SDS011;11720;51.214;22.574;2022-08-01T11:00:19;0.70;;;0.70;;
23101;SDS011;11720;51.214;22.574;2022-08-01T11:02:58;1.15;;;1.05;;
23101;SDS011;11720;51.214;22.574;2022-08-01T11:05:27;0.80;;;0.68;;
23101;SDS011;11720;51.214;22.574;2022-08-01T11:07:55;0.98;;;0.88;;
23101;SDS011;11720;51.214;22.574;2022-08-01T11:13:10;1.52;;;1.23;;
23101;SDS011;11720;51.214;22.574;2022-08-01T11:15:36;1.23;;;1.13;;
23101;SDS011;11720;51.214;22.574;2022-08-01T11:18:04;1.02;;;0.98;;
23101;SDS011;11720;51.214;22.574;2022-08-01T11:20:59;1.98;;;1.13;;
23101;SDS011;11720;51.214;22.574;2022-08-01T11:23:26;1.23;;;1.05;;
23101;SDS011;11720;51.214;22.574;2022-08-01T11:28:19;0.82;;;0.80;;
23101;SDS011;11720;51.214;22.574;2022-08-01T11:30:51;1.10;;;1.00;;
23101;SDS011;11720;51.214;22.574;2022-08-01T11:33:47;1.10;;;0.95;;
23101;SDS011;11720;51.214;22.574;2022-08-01T11:38:37;1.42;;;1.25;;
23101;SDS011;11720;51.214;22.574;2022-08-01T11:41:20;1.13;;;1.02;;
23101;SDS011;11720;51.214;22.574;2022-08-01T11:54:55;0.80;;;0.80;;
23101;SDS011;11720;51.214;22.574;2022-08-01T11:59:53;2.05;;;1.05;;
23101;SDS011;11720;51.214;22.574;2022-08-01T12:04:49;1.17;;;1.08;;
23101;SDS011;11720;51.214;22.574;2022-08-01T12:07:23;1.90;;;1.05;;
23101;SDS011;11720;51.214;22.574;2022-08-01T12:09:58;0.98;;;0.98;;
23101;SDS011;11720;51.214;22.574;2022-08-01T12:12:49;0.98;;;0.98;;
23101;SDS011;11720;51.214;22.574;2022-08-01T12:15:20;1.30;;;1.10;;
23101;SDS011;11720;51.214;22.574;2022-08-01T12:17:58;0.93;;;0.90;;
23101;SDS011;11720;51.214;22.574;2022-08-01T12:20:26;1.13;;;0.77;;
23101;SDS011;11720;51.214;22.574;2022-08-01T12:22:54;1.20;;;1.00;;
23101;SDS011;11720;51.214;22.574;2022-08-01T12:25:27;0.95;;;0.68;;
23101;SDS011;11720;51.214;22.574;2022-08-01T12:27:54;0.75;;;0.75;;
23101;SDS011;11720;51.214;22.574;2022-08-01T12:30:22;1.50;;;0.90;;
23101;SDS011;11720;51.214;22.574;2022-08-01T12:32:49;2.35;;;0.80;;
23101;SDS011;11720;51.214;22.574;2022-08-01T12:35:15;0.85;;;0.80;;
23101;SDS011;11720;51.214;22.574;2022-08-01T12:37:43;0.57;;;0.52;;
23101;SDS011;11720;51.214;22.574;2022-08-01T12:40:11;0.98;;;0.88;;
23101;SDS011;11720;51.214;22.574;2022-08-01T12:42:42;1.13;;;0.85;;
23101;SDS011;11720;51.214;22.574;2022-08-01T12:45:10;2.40;;;0.70;;
23101;SDS011;11720;51.214;22.574;2022-08-01T12:47:41;1.77;;;1.27;;
23101;SDS011;11720;51.214;22.574;2022-08-01T12:50:07;1.38;;;0.70;;
23101;SDS011;11720;51.214;22.574;2022-08-01T12:52:44;1.13;;;0.80;;
23101;SDS011;11720;51.214;22.574;2022-08-01T12:55:17;0.68;;;0.68;;
23101;SDS011;11720;51.214;22.574;2022-08-01T12:57:45;1.85;;;1.38;;
23101;SDS011;11720;51.214;22.574;2022-08-01T13:02:40;0.93;;;0.90;;
23101;SDS011;11720;51.214;22.574;2022-08-01T13:05:07;1.10;;;0.77;;
23101;SDS011;11720;51.214;22.574;2022-08-01T13:07:38;0.80;;;0.80;;
23101;SDS011;11720;51.214;22.574;2022-08-01T13:10:09;0.60;;;0.60;;
23101;SDS011;11720;51.214;22.574;2022-08-01T13:12:36;0.70;;;0.70;;
23101;SDS011;11720;51.214;22.574;2022-08-01T13:15:22;0.77;;;0.77;;
23101;SDS011;11720;51.214;22.574;2022-08-01T13:17:53;1.42;;;0.80;;
23101;SDS011;11720;51.214;22.574;2022-08-01T13:20:27;0.82;;;0.80;;
23101;SDS011;11720;51.214;22.574;2022-08-01T13:22:55;2.67;;;1.33;;
23101;SDS011;11720;51.214;22.574;2022-08-01T13:25:47;0.70;;;0.70;;
23101;SDS011;11720;51.214;22.574;2022-08-01T13:28:19;0.60;;;0.60;;
23101;SDS011;11720;51.214;22.574;2022-08-01T13:30:50;1.40;;;1.10;;
23101;SDS011;11720;51.214;22.574;2022-08-01T13:33:24;0.80;;;0.80;;
23101;SDS011;11720;51.214;22.574;2022-08-01T13:35:52;0.90;;;0.77;;
23101;SDS011;11720;51.214;22.574;2022-08-01T13:38:19;0.98;;;0.98;;
23101;SDS011;11720;51.214;22.574;2022-08-01T13:40:45;0.77;;;0.77;;
23101;SDS011;11720;51.214;22.574;2022-08-01T13:43:11;1.92;;;1.00;;
23101;SDS011;11720;51.214;22.574;2022-08-01T13:45:36;2.50;;;1.70;;
23101;SDS011;11720;51.214;22.574;2022-08-01T13:48:03;1.08;;;0.98;;
23101;SDS011;11720;51.214;22.574;2022-08-01T13:50:29;0.80;;;0.80;;
23101;SDS011;11720;51.214;22.574;2022-08-01T13:52:55;1.27;;;0.88;;
23101;SDS011;11720;51.214;22.574;2022-08-01T13:55:21;2.58;;;1.30;;
23101;SDS011;11720;51.214;22.574;2022-08-01T13:57:46;0.60;;;0.60;;
23101;SDS011;11720;51.214;22.574;2022-08-01T14:00:12;2.97;;;1.00;;
23101;SDS011;11720;51.214;22.574;2022-08-01T14:02:38;1.10;;;0.93;;
23101;SDS011;11720;51.214;22.574;2022-08-01T14:05:05;0.95;;;0.75;;
23101;SDS011;11720;51.214;22.574;2022-08-01T14:07:31;2.97;;;1.02;;
23101;SDS011;11720;51.214;22.574;2022-08-01T14:09:56;0.77;;;0.77;;
23101;SDS011;11720;51.214;22.574;2022-08-01T14:12:22;0.70;;;0.70;;
23101;SDS011;11720;51.214;22.574;2022-08-01T14:14:48;1.17;;;0.80;;
23101;SDS011;11720;51.214;22.574;2022-08-01T14:17:13;0.82;;;0.73;;
23101;SDS011;11720;51.214;22.574;2022-08-01T14:19:39;1.13;;;0.80;;
23101;SDS011;11720;51.214;22.574;2022-08-01T14:22:05;1.25;;;0.90;;
23101;SDS011;11720;51.214;22.574;2022-08-01T14:24:30;1.50;;;1.10;;
23101;SDS011;11720;51.214;22.574;2022-08-01T14:26:56;2.92;;;0.80;;
23101;SDS011;11720;51.214;22.574;2022-08-01T14:29:21;0.70;;;0.60;;
23101;SDS011;11720;51.214;22.574;2022-08-01T14:31:47;0.90;;;0.73;;
23101;SDS011;11720;51.214;22.574;2022-08-01T14:34:13;1.00;;;0.60;;
23101;SDS011;11720;51.214;22.574;2022-08-01T14:36:38;0.70;;;0.70;;
23101;SDS011;11720;51.214;22.574;2022-08-01T14:39:04;1.17;;;0.82;;
23101;SDS011;11720;51.214;22.574;2022-08-01T14:41:30;0.73;;;0.73;;
23101;SDS011;11720;51.214;22.574;2022-08-01T14:43:55;0.90;;;0.70;;
23101;SDS011;11720;51.214;22.574;2022-08-01T14:46:21;0.85;;;0.70;;
23101;SDS011;11720;51.214;22.574;2022-08-01T14:48:47;0.98;;;0.88;;
23101;SDS011;11720;51.214;22.574;2022-08-01T14:51:13;1.55;;;0.80;;
23101;SDS011;11720;51.214;22.574;2022-08-01T14:53:39;0.85;;;0.80;;
23101;SDS011;11720;51.214;22.574;2022-08-01T14:56:05;1.08;;;0.88;;
23101;SDS011;11720;51.214;22.574;2022-08-01T14:58:31;0.93;;;0.80;;
23101;SDS011;11720;51.214;22.574;2022-08-01T15:00:57;1.40;;;0.88;;
23101;SDS011;11720;51.214;22.574;2022-08-01T15:03:23;1.08;;;0.82;;
23101;SDS011;11720;51.214;22.574;2022-08-01T15:05:49;0.70;;;0.68;;
23101;SDS011;11720;51.214;22.574;2022-08-01T15:08:14;0.90;;;0.90;;
23101;SDS011;11720;51.214;22.574;2022-08-01T15:10:40;1.27;;;1.00;;
23101;SDS011;11720;51.214;22.574;2022-08-01T15:13:06;1.23;;;1.00;;
23101;SDS011;11720;51.214;22.574;2022-08-01T15:15:32;0.88;;;0.80;;
23101;SDS011;11720;51.214;22.574;2022-08-01T15:17:58;1.23;;;0.90;;
23101;SDS011;11720;51.214;22.574;2022-08-01T15:20:24;1.40;;;1.00;;